sensor_id;sensor_type;location;lat;lon;timestamp;P1;durP1;ratioP1;P2;durP2;ratioP2
55589;SDS011;41452;42.780;23.116;2022-08-25T00:02:02;13.70;;;5.13;;
55589;SDS011;41452;42.780;23.116;2022-08-25T00:04:30;19.38;;;6.10;;
55589;SDS011;41452;42.780;23.116;2022-08-25T00:06:56;15.73;;;6.30;;
55589;SDS011;41452;42.780;23.116;2022-08-25T00:09:25;15.43;;;6.10;;
55589;SDS011;41452;42.780;23.116;2022-08-25T00:11:52;18.00;;;5.57;;
55589;SDS011;41452;42.780;23.116;2022-08-25T00:16:47;13.40;;;5.63;;
55589;SDS011;41452;42.780;23.116;2022-08-25T00:19:15;15.02;;;6.32;;
55589;SDS011;41452;42.780;23.116;2022-08-25T00:21:44;10.85;;;5.25;;
55589;SDS011;41452;42.780;23.116;2022-08-25T00:24:11;24.33;;;7.20;;
55589;SDS011;41452;42.780;23.116;2022-08-25T00:26:39;26.48;;;7.63;;
55589;SDS011;41452;42.780;23.116;2022-08-25T00:29:07;15.63;;;5.47;;
55589;SDS011;41452;42.780;23.116;2022-08-25T00:31:33;19.70;;;6.18;;
55589;SDS011;41452;42.780;23.116;2022-08-25T00:33:58;17.58;;;6.05;;
55589;SDS011;41452;42.780;23.116;2022-08-25T00:36:25;12.43;;;5.45;;
55589;SDS011;41452;42.780;23.116;2022-08-25T00:38:52;26.02;;;5.47;;
55589;SDS011;41452;42.780;23.116;2022-08-25T00:41:19;17.08;;;5.50;;
55589;SDS011;41452;42.780;23.116;2022-08-25T00:46:23;13.35;;;5.38;;
55589;SDS011;41452;42.780;23.116;2022-08-25T00:48:56;18.45;;;5.30;;
55589;SDS011;41452;42.780;23.116;2022-08-25T00:51:45;12.02;;;5.40;;
55589;SDS011;41452;42.780;23.116;2022-08-25T00:54:23;20.35;;;6.15;;
55589;SDS011;41452;42.780;23.116;2022-08-25T00:56:52;17.38;;;4.97;;
55589;SDS011;41452;42.780;23.116;2022-08-25T00:59:19;18.55;;;5.63;;
55589;SDS011;41452;42.780;23.116;2022-08-25T01:01:46;18.70;;;5.30;;
55589;SDS011;41452;42.780;23.116;2022-08-25T01:04:12;20.27;;;6.13;;
55589;SDS011;41452;42.780;23.116;2022-08-25T01:06:38;14.80;;;5.03;;
55589;SDS011;41452;42.780;23.116;2022-08-25T01:09:08;17.08;;;5.53;;
55589;SDS011;41452;42.780;23.116;2022-08-25T01:11:34;16.50;;;5.30;;
55589;SDS011;41452;42.780;23.116;2022-08-25T01:16:29;21.52;;;5.00;;
55589;SDS011;41452;42.780;23.116;2022-08-25T01:18:55;18.30;;;5.78;;
55589;SDS011;41452;42.780;23.116;2022-08-25T01:21:22;17.95;;;6.18;;
55589;SDS011;41452;42.780;23.116;2022-08-25T01:23:49;18.05;;;5.68;;
55589;SDS011;41452;42.780;23.116;2022-08-25T01:26:20;22.83;;;5.13;;
55589;SDS011;41452;42.780;23.116;2022-08-25T01:28:49;13.65;;;5.40;;
55589;SDS011;41452;42.780;23.116;2022-08-25T01:33:59;16.33;;;5.78;;
55589;SDS011;41452;42.780;23.116;2022-08-25T01:36:25;15.93;;;6.18;;
55589;SDS011;41452;42.780;23.116;2022-08-25T01:38:52;12.00;;;6.13;;
55589;SDS011;41452;42.780;23.116;2022-08-25T01:42:02;18.23;;;6.03;;
55589;SDS011;41452;42.780;23.116;2022-08-25T01:44:12;19.95;;;6.28;;
55589;SDS011;41452;42.780;23.116;2022-08-25T01:46:39;13.95;;;6.15;;
55589;SDS011;41452;42.780;23.116;2022-08-25T01:49:04;18.15;;;6.13;;
55589;SDS011;41452;42.780;23.116;2022-08-25T01:51:33;22.85;;;6.75;;
55589;SDS011;41452;42.780;23.116;2022-08-25T01:54:02;18.42;;;6.15;;
55589;SDS011;41452;42.780;23.116;2022-08-25T01:56:28;27.60;;;5.63;;
55589;SDS011;41452;42.780;23.116;2022-08-25T01:58:53;14.35;;;5.65;;
55589;SDS011;41452;42.780;23.116;2022-08-25T02:01:20;15.00;;;5.70;;
55589;SDS011;41452;42.780;23.116;2022-08-25T02:03:47;21.48;;;6.78;;
55589;SDS011;41452;42.780;23.116;2022-08-25T02:06:15;15.77;;;6.57;;
55589;SDS011;41452;42.780;23.116;2022-08-25T02:08:48;21.52;;;7.70;;
55589;SDS011;41452;42.780;23.116;2022-08-25T02:11:15;16.52;;;6.38;;
55589;SDS011;41452;42.780;23.116;2022-08-25T02:13:40;14.55;;;5.68;;
55589;SDS011;41452;42.780;23.116;2022-08-25T02:16:07;12.25;;;5.93;;
55589;SDS011;41452;42.780;23.116;2022-08-25T02:18:38;12.65;;;6.22;;
55589;SDS011;41452;42.780;23.116;2022-08-25T02:21:04;18.15;;;6.72;;
55589;SDS011;41452;42.780;23.116;2022-08-25T02:23:30;21.65;;;6.90;;
55589;SDS011;41452;42.780;23.116;2022-08-25T02:25:55;16.13;;;6.93;;
55589;SDS011;41452;42.780;23.116;2022-08-25T02:33:31;14.60;;;6.35;;
55589;SDS011;41452;42.780;23.116;2022-08-25T02:35:58;19.05;;;6.88;;
55589;SDS011;41452;42.780;23.116;2022-08-25T02:38:25;12.85;;;6.20;;
55589;SDS011;41452;42.780;23.116;2022-08-25T02:40:52;14.25;;;7.03;;
55589;SDS011;41452;42.780;23.116;2022-08-25T02:43:18;13.93;;;6.20;;
55589;SDS011;41452;42.780;23.116;2022-08-25T02:45:43;13.82;;;6.35;;
55589;SDS011;41452;42.780;23.116;2022-08-25T02:48:08;18.27;;;6.90;;
55589;SDS011;41452;42.780;23.116;2022-08-25T02:50:34;16.75;;;7.47;;
55589;SDS011;41452;42.780;23.116;2022-08-25T02:52:59;17.75;;;7.40;;
55589;SDS011;41452;42.780;23.116;2022-08-25T02:55:25;17.92;;;6.30;;
55589;SDS011;41452;42.780;23.116;2022-08-25T02:57:50;17.15;;;7.60;;
55589;SDS011;41452;42.780;23.116;2022-08-25T03:00:16;16.15;;;6.38;;
55589;SDS011;41452;42.780;23.116;2022-08-25T03:02:42;17.00;;;6.45;;
55589;SDS011;41452;42.780;23.116;2022-08-25T03:05:08;22.50;;;6.55;;
55589;SDS011;41452;42.780;23.116;2022-08-25T03:07:35;21.88;;;6.82;;
55589;SDS011;41452;42.780;23.116;2022-08-25T03:10:06;24.00;;;7.60;;
55589;SDS011;41452;42.780;23.116;2022-08-25T03:15:14;13.32;;;7.55;;
55589;SDS011;41452;42.780;23.116;2022-08-25T03:17:41;19.33;;;7.38;;
55589;SDS011;41452;42.780;23.116;2022-08-25T03:20:10;16.33;;;7.93;;
55589;SDS011;41452;42.780;23.116;2022-08-25T03:22:36;17.83;;;7.75;;
55589;SDS011;41452;42.780;23.116;2022-08-25T03:25:02;23.17;;;8.02;;
55589;SDS011;41452;42.780;23.116;2022-08-25T03:30:13;23.73;;;8.57;;
55589;SDS011;41452;42.780;23.116;2022-08-25T03:32:40;16.20;;;7.82;;
55589;SDS011;41452;42.780;23.116;2022-08-25T03:35:06;17.27;;;7.07;;
55589;SDS011;41452;42.780;23.116;2022-08-25T03:37:32;14.38;;;6.78;;
55589;SDS011;41452;42.780;23.116;2022-08-25T03:39:57;21.38;;;7.20;;
55589;SDS011;41452;42.780;23.116;2022-08-25T03:42:23;15.88;;;6.70;;
55589;SDS011;41452;42.780;23.116;2022-08-25T03:44:50;20.73;;;8.75;;
55589;SDS011;41452;42.780;23.116;2022-08-25T03:47:15;23.45;;;7.47;;
55589;SDS011;41452;42.780;23.116;2022-08-25T03:49:41;14.57;;;7.38;;
55589;SDS011;41452;42.780;23.116;2022-08-25T03:52:06;15.55;;;7.20;;
55589;SDS011;41452;42.780;23.116;2022-08-25T03:54:31;23.77;;;7.78;;
55589;SDS011;41452;42.780;23.116;2022-08-25T03:56:57;12.02;;;7.10;;
55589;SDS011;41452;42.780;23.116;2022-08-25T03:59:22;18.65;;;7.03;;
55589;SDS011;41452;42.780;23.116;2022-08-25T04:01:48;14.35;;;6.85;;
55589;SDS011;41452;42.780;23.116;2022-08-25T04:04:14;21.88;;;8.15;;
55589;SDS011;41452;42.780;23.116;2022-08-25T04:06:40;15.00;;;7.78;;
55589;SDS011;41452;42.780;23.116;2022-08-25T04:09:07;15.88;;;7.95;;
55589;SDS011;41452;42.780;23.116;2022-08-25T04:11:33;16.77;;;6.97;;
55589;SDS011;41452;42.780;23.116;2022-08-25T04:13:59;20.48;;;7.70;;
55589;SDS011;41452;42.780;23.116;2022-08-25T04:16:27;18.75;;;7.63;;
55589;SDS011;41452;42.780;23.116;2022-08-25T04:18:55;15.95;;;8.10;;
55589;SDS011;41452;42.780;23.116;2022-08-25T04:21:22;24.20;;;7.43;;
55589;SDS011;41452;42.780;23.116;2022-08-25T04:35:13;21.58;;;8.30;;
55589;SDS011;41452;42.780;23.116;2022-08-25T04:37:38;22.17;;;8.45;;
55589;SDS011;41452;42.780;23.116;2022-08-25T04:40:04;13.43;;;8.30;;
55589;SDS011;41452;42.780;23.116;2022-08-25T04:42:31;20.08;;;7.97;;
55589;SDS011;41452;42.780;23.116;2022-08-25T04:44:56;21.55;;;8.35;;
55589;SDS011;41452;42.780;23.116;2022-08-25T04:47:22;20.23;;;7.78;;
55589;SDS011;41452;42.780;23.116;2022-08-25T04:49:48;14.77;;;8.20;;
55589;SDS011;41452;42.780;23.116;2022-08-25T04:52:13;14.40;;;8.10;;
55589;SDS011;41452;42.780;23.116;2022-08-25T04:54:39;14.10;;;7.30;;
55589;SDS011;41452;42.780;23.116;2022-08-25T04:57:04;19.23;;;8.40;;
55589;SDS011;41452;42.780;23.116;2022-08-25T04:59:30;18.38;;;8.68;;
55589;SDS011;41452;42.780;23.116;2022-08-25T05:01:57;25.38;;;8.68;;
55589;SDS011;41452;42.780;23.116;2022-08-25T05:04:26;19.42;;;8.57;;
55589;SDS011;41452;42.780;23.116;2022-08-25T05:06:51;19.40;;;7.70;;
55589;SDS011;41452;42.780;23.116;2022-08-25T05:09:17;16.40;;;8.00;;
55589;SDS011;41452;42.780;23.116;2022-08-25T05:11:42;17.17;;;8.60;;
55589;SDS011;41452;42.780;23.116;2022-08-25T05:14:07;19.08;;;8.50;;
55589;SDS011;41452;42.780;23.116;2022-08-25T05:16:36;19.10;;;8.23;;
55589;SDS011;41452;42.780;23.116;2022-08-25T05:19:02;20.92;;;9.02;;
55589;SDS011;41452;42.780;23.116;2022-08-25T05:21:28;13.85;;;7.68;;
55589;SDS011;41452;42.780;23.116;2022-08-25T05:23:57;19.38;;;8.77;;
55589;SDS011;41452;42.780;23.116;2022-08-25T05:26:25;17.80;;;8.52;;
55589;SDS011;41452;42.780;23.116;2022-08-25T05:28:53;16.70;;;8.65;;
55589;SDS011;41452;42.780;23.116;2022-08-25T05:31:19;19.52;;;9.80;;
55589;SDS011;41452;42.780;23.116;2022-08-25T05:36:21;22.35;;;8.35;;
55589;SDS011;41452;42.780;23.116;2022-08-25T05:38:48;24.85;;;9.00;;
55589;SDS011;41452;42.780;23.116;2022-08-25T05:41:15;16.85;;;8.60;;
55589;SDS011;41452;42.780;23.116;2022-08-25T05:43:43;24.95;;;8.68;;
55589;SDS011;41452;42.780;23.116;2022-08-25T05:46:10;22.45;;;11.02;;
55589;SDS011;41452;42.780;23.116;2022-08-25T05:48:37;18.80;;;9.15;;
55589;SDS011;41452;42.780;23.116;2022-08-25T05:51:04;19.25;;;8.75;;
55589;SDS011;41452;42.780;23.116;2022-08-25T05:53:31;12.95;;;8.20;;
55589;SDS011;41452;42.780;23.116;2022-08-25T05:55:57;18.23;;;8.73;;
55589;SDS011;41452;42.780;23.116;2022-08-25T05:58:25;17.98;;;8.15;;
55589;SDS011;41452;42.780;23.116;2022-08-25T06:00:52;19.98;;;8.45;;
55589;SDS011;41452;42.780;23.116;2022-08-25T06:03:18;21.05;;;8.80;;
55589;SDS011;41452;42.780;23.116;2022-08-25T06:05:43;19.70;;;8.10;;
55589;SDS011;41452;42.780;23.116;2022-08-25T06:08:09;19.95;;;8.25;;
55589;SDS011;41452;42.780;23.116;2022-08-25T06:10:34;13.38;;;8.15;;
55589;SDS011;41452;42.780;23.116;2022-08-25T06:13:00;14.93;;;8.38;;
55589;SDS011;41452;42.780;23.116;2022-08-25T06:15:26;18.75;;;9.40;;
55589;SDS011;41452;42.780;23.116;2022-08-25T06:17:52;15.93;;;7.57;;
55589;SDS011;41452;42.780;23.116;2022-08-25T06:20:23;20.75;;;7.88;;
55589;SDS011;41452;42.780;23.116;2022-08-25T06:22:50;26.80;;;9.10;;
55589;SDS011;41452;42.780;23.116;2022-08-25T06:25:17;19.23;;;8.68;;
55589;SDS011;41452;42.780;23.116;2022-08-25T06:27:45;15.38;;;7.50;;
55589;SDS011;41452;42.780;23.116;2022-08-25T06:30:11;13.95;;;8.57;;
55589;SDS011;41452;42.780;23.116;2022-08-25T06:32:40;30.63;;;8.32;;
55589;SDS011;41452;42.780;23.116;2022-08-25T06:35:08;21.08;;;9.50;;
55589;SDS011;41452;42.780;23.116;2022-08-25T06:37:36;19.83;;;9.13;;
55589;SDS011;41452;42.780;23.116;2022-08-25T06:40:04;16.75;;;9.18;;
55589;SDS011;41452;42.780;23.116;2022-08-25T06:42:33;22.08;;;9.07;;
55589;SDS011;41452;42.780;23.116;2022-08-25T06:44:59;14.80;;;8.52;;
55589;SDS011;41452;42.780;23.116;2022-08-25T06:47:25;27.90;;;8.50;;
55589;SDS011;41452;42.780;23.116;2022-08-25T06:49:51;18.55;;;8.73;;
55589;SDS011;41452;42.780;23.116;2022-08-25T06:52:16;21.80;;;8.90;;
55589;SDS011;41452;42.780;23.116;2022-08-25T06:54:42;17.25;;;8.30;;
55589;SDS011;41452;42.780;23.116;2022-08-25T06:57:07;15.23;;;8.00;;
55589;SDS011;41452;42.780;23.116;2022-08-25T06:59:33;15.52;;;8.65;;
55589;SDS011;41452;42.780;23.116;2022-08-25T07:02:00;26.45;;;10.07;;
55589;SDS011;41452;42.780;23.116;2022-08-25T07:04:26;18.23;;;7.85;;
55589;SDS011;41452;42.780;23.116;2022-08-25T07:06:52;17.60;;;7.65;;
55589;SDS011;41452;42.780;23.116;2022-08-25T07:09:17;18.10;;;8.10;;
55589;SDS011;41452;42.780;23.116;2022-08-25T07:11:43;16.48;;;8.50;;
55589;SDS011;41452;42.780;23.116;2022-08-25T07:14:10;18.88;;;8.82;;
55589;SDS011;41452;42.780;23.116;2022-08-25T07:16:38;17.15;;;8.80;;
55589;SDS011;41452;42.780;23.116;2022-08-25T07:19:04;23.05;;;8.25;;
55589;SDS011;41452;42.780;23.116;2022-08-25T07:21:30;27.17;;;8.88;;
55589;SDS011;41452;42.780;23.116;2022-08-25T07:23:58;16.33;;;9.00;;
55589;SDS011;41452;42.780;23.116;2022-08-25T07:26:25;21.13;;;8.27;;
55589;SDS011;41452;42.780;23.116;2022-08-25T07:28:54;15.85;;;8.30;;
55589;SDS011;41452;42.780;23.116;2022-08-25T07:31:21;19.52;;;9.27;;
55589;SDS011;41452;42.780;23.116;2022-08-25T07:33:46;20.38;;;8.32;;
55589;SDS011;41452;42.780;23.116;2022-08-25T07:36:31;22.67;;;8.23;;
55589;SDS011;41452;42.780;23.116;2022-08-25T07:38:57;12.88;;;8.23;;
55589;SDS011;41452;42.780;23.116;2022-08-25T07:41:23;25.17;;;8.00;;
55589;SDS011;41452;42.780;23.116;2022-08-25T07:43:49;22.42;;;8.30;;
55589;SDS011;41452;42.780;23.116;2022-08-25T07:46:14;21.50;;;8.15;;
55589;SDS011;41452;42.780;23.116;2022-08-25T07:48:39;23.90;;;8.57;;
55589;SDS011;41452;42.780;23.116;2022-08-25T07:51:07;16.02;;;8.70;;
55589;SDS011;41452;42.780;23.116;2022-08-25T07:53:34;20.98;;;9.45;;
55589;SDS011;41452;42.780;23.116;2022-08-25T07:55:59;18.35;;;8.50;;
55589;SDS011;41452;42.780;23.116;2022-08-25T07:58:25;25.58;;;8.73;;
55589;SDS011;41452;42.780;23.116;2022-08-25T08:00:50;23.27;;;8.43;;
55589;SDS011;41452;42.780;23.116;2022-08-25T08:03:17;23.00;;;9.55;;
55589;SDS011;41452;42.780;23.116;2022-08-25T08:05:44;22.15;;;9.15;;
55589;SDS011;41452;42.780;23.116;2022-08-25T08:08:11;26.85;;;8.65;;
55589;SDS011;41452;42.780;23.116;2022-08-25T08:10:40;19.80;;;7.80;;
55589;SDS011;41452;42.780;23.116;2022-08-25T08:13:06;26.15;;;8.60;;
55589;SDS011;41452;42.780;23.116;2022-08-25T08:15:34;20.70;;;8.27;;
55589;SDS011;41452;42.780;23.116;2022-08-25T08:18:01;15.98;;;7.95;;
55589;SDS011;41452;42.780;23.116;2022-08-25T08:20:27;16.88;;;8.23;;
55589;SDS011;41452;42.780;23.116;2022-08-25T08:22:53;18.60;;;8.50;;
55589;SDS011;41452;42.780;23.116;2022-08-25T08:25:19;16.70;;;8.18;;
55589;SDS011;41452;42.780;23.116;2022-08-25T08:27:45;23.52;;;8.50;;
55589;SDS011;41452;42.780;23.116;2022-08-25T08:30:11;18.70;;;8.48;;
55589;SDS011;41452;42.780;23.116;2022-08-25T08:32:37;22.33;;;8.57;;
55589;SDS011;41452;42.780;23.116;2022-08-25T08:35:02;20.23;;;9.07;;
55589;SDS011;41452;42.780;23.116;2022-08-25T08:37:30;19.02;;;8.65;;
55589;SDS011;41452;42.780;23.116;2022-08-25T08:39:55;25.75;;;8.43;;
55589;SDS011;41452;42.780;23.116;2022-08-25T08:53:12;25.38;;;6.78;;
55589;SDS011;41452;42.780;23.116;2022-08-25T08:55:56;25.58;;;6.47;;
55589;SDS011;41452;42.780;23.116;2022-08-25T09:01:15;23.52;;;5.10;;
55589;SDS011;41452;42.780;23.116;2022-08-25T09:03:49;20.90;;;6.40;;
55589;SDS011;41452;42.780;23.116;2022-08-25T09:09:01;21.80;;;3.40;;
55589;SDS011;41452;42.780;23.116;2022-08-25T09:16:56;23.95;;;3.67;;
55589;SDS011;41452;42.780;23.116;2022-08-25T09:19:37;17.73;;;3.33;;
55589;SDS011;41452;42.780;23.116;2022-08-25T09:32:34;19.80;;;3.33;;
55589;SDS011;41452;42.780;23.116;2022-08-25T09:37:39;20.58;;;2.95;;
55589;SDS011;41452;42.780;23.116;2022-08-25T09:40:05;17.70;;;2.63;;
55589;SDS011;41452;42.780;23.116;2022-08-25T09:42:50;25.25;;;3.28;;
55589;SDS011;41452;42.780;23.116;2022-08-25T09:51:20;30.45;;;3.50;;
55589;SDS011;41452;42.780;23.116;2022-08-25T09:53:50;23.63;;;3.53;;
55589;SDS011;41452;42.780;23.116;2022-08-25T09:56:21;15.45;;;2.92;;
55589;SDS011;41452;42.780;23.116;2022-08-25T09:58:49;21.60;;;3.63;;
55589;SDS011;41452;42.780;23.116;2022-08-25T10:03:53;16.23;;;4.22;;
55589;SDS011;41452;42.780;23.116;2022-08-25T10:06:21;22.33;;;3.30;;
55589;SDS011;41452;42.780;23.116;2022-08-25T10:11:14;21.15;;;3.03;;
55589;SDS011;41452;42.780;23.116;2022-08-25T10:14:41;8.75;;;2.20;;
55589;SDS011;41452;42.780;23.116;2022-08-25T10:19:40;26.15;;;3.58;;
55589;SDS011;41452;42.780;23.116;2022-08-25T10:24:35;25.38;;;3.17;;
55589;SDS011;41452;42.780;23.116;2022-08-25T10:32:21;13.52;;;2.53;;
55589;SDS011;41452;42.780;23.116;2022-08-25T10:34:55;17.73;;;3.88;;
55589;SDS011;41452;42.780;23.116;2022-08-25T10:40:27;21.70;;;3.03;;
55589;SDS011;41452;42.780;23.116;2022-08-25T10:43:06;19.05;;;3.58;;
55589;SDS011;41452;42.780;23.116;2022-08-25T10:46:05;26.63;;;3.40;;
55589;SDS011;41452;42.780;23.116;2022-08-25T10:51:37;15.45;;;3.30;;
55589;SDS011;41452;42.780;23.116;2022-08-25T10:56:51;16.38;;;4.38;;
55589;SDS011;41452;42.780;23.116;2022-08-25T10:59:38;12.60;;;3.35;;
55589;SDS011;41452;42.780;23.116;2022-08-25T11:05:09;19.13;;;3.28;;
55589;SDS011;41452;42.780;23.116;2022-08-25T11:07:46;17.88;;;3.33;;
55589;SDS011;41452;42.780;23.116;2022-08-25T11:13:54;18.60;;;3.85;;
55589;SDS011;41452;42.780;23.116;2022-08-25T11:16:23;26.13;;;3.33;;
55589;SDS011;41452;42.780;23.116;2022-08-25T11:19:22;11.00;;;3.03;;
55589;SDS011;41452;42.780;23.116;2022-08-25T11:21:52;12.30;;;2.88;;
55589;SDS011;41452;42.780;23.116;2022-08-25T11:26:57;21.90;;;2.92;;
55589;SDS011;41452;42.780;23.116;2022-08-25T11:29:28;17.77;;;3.80;;
55589;SDS011;41452;42.780;23.116;2022-08-25T11:31:59;18.85;;;3.58;;
55589;SDS011;41452;42.780;23.116;2022-08-25T11:34:26;11.88;;;3.00;;
55589;SDS011;41452;42.780;23.116;2022-08-25T11:36:55;12.48;;;3.17;;
55589;SDS011;41452;42.780;23.116;2022-08-25T11:42:04;18.63;;;4.57;;
55589;SDS011;41452;42.780;23.116;2022-08-25T11:49:58;18.02;;;3.63;;
55589;SDS011;41452;42.780;23.116;2022-08-25T11:54:57;17.90;;;3.15;;
55589;SDS011;41452;42.780;23.116;2022-08-25T11:57:50;17.95;;;3.42;;
55589;SDS011;41452;42.780;23.116;2022-08-25T12:19:25;17.85;;;3.10;;
55589;SDS011;41452;42.780;23.116;2022-08-25T12:43:21;20.63;;;3.55;;
55589;SDS011;41452;42.780;23.116;2022-08-25T12:49:00;15.45;;;3.10;;
55589;SDS011;41452;42.780;23.116;2022-08-25T12:53:58;10.80;;;2.80;;
55589;SDS011;41452;42.780;23.116;2022-08-25T12:56:52;16.15;;;3.08;;
55589;SDS011;41452;42.780;23.116;2022-08-25T13:10:21;13.35;;;2.95;;
55589;SDS011;41452;42.780;23.116;2022-08-25T13:13:02;19.45;;;3.20;;
55589;SDS011;41452;42.780;23.116;2022-08-25T13:15:33;27.33;;;3.00;;
55589;SDS011;41452;42.780;23.116;2022-08-25T13:21:34;16.15;;;3.15;;
55589;SDS011;41452;42.780;23.116;2022-08-25T13:23:52;26.23;;;3.03;;
55589;SDS011;41452;42.780;23.116;2022-08-25T13:26:23;18.08;;;3.05;;
55589;SDS011;41452;42.780;23.116;2022-08-25T13:31:31;14.73;;;2.95;;
55589;SDS011;41452;42.780;23.116;2022-08-25T13:33:59;15.00;;;3.05;;
55589;SDS011;41452;42.780;23.116;2022-08-25T13:36:27;24.73;;;4.60;;
55589;SDS011;41452;42.780;23.116;2022-08-25T13:39:14;17.50;;;3.60;;
55589;SDS011;41452;42.780;23.116;2022-08-25T13:41:44;18.85;;;3.00;;
55589;SDS011;41452;42.780;23.116;2022-08-25T13:44:14;20.35;;;3.17;;
55589;SDS011;41452;42.780;23.116;2022-08-25T13:46:41;21.17;;;4.40;;
55589;SDS011;41452;42.780;23.116;2022-08-25T13:49:07;26.42;;;4.72;;
55589;SDS011;41452;42.780;23.116;2022-08-25T13:51:33;24.33;;;4.85;;
55589;SDS011;41452;42.780;23.116;2022-08-25T13:54:02;17.20;;;3.60;;
55589;SDS011;41452;42.780;23.116;2022-08-25T13:59:00;16.80;;;3.45;;
55589;SDS011;41452;42.780;23.116;2022-08-25T14:01:29;17.50;;;3.10;;
55589;SDS011;41452;42.780;23.116;2022-08-25T14:06:48;15.20;;;3.60;;
55589;SDS011;41452;42.780;23.116;2022-08-25T14:09:36;21.20;;;4.88;;
55589;SDS011;41452;42.780;23.116;2022-08-25T14:12:04;22.20;;;5.15;;
55589;SDS011;41452;42.780;23.116;2022-08-25T14:14:31;26.15;;;4.78;;
55589;SDS011;41452;42.780;23.116;2022-08-25T14:17:06;19.42;;;3.03;;
55589;SDS011;41452;42.780;23.116;2022-08-25T14:19:34;18.42;;;3.47;;
55589;SDS011;41452;42.780;23.116;2022-08-25T14:22:08;18.63;;;3.33;;
55589;SDS011;41452;42.780;23.116;2022-08-25T14:24:33;17.77;;;3.60;;
55589;SDS011;41452;42.780;23.116;2022-08-25T14:26:59;16.20;;;3.50;;
55589;SDS011;41452;42.780;23.116;2022-08-25T14:29:26;16.90;;;3.70;;
55589;SDS011;41452;42.780;23.116;2022-08-25T14:31:51;20.95;;;2.78;;
55589;SDS011;41452;42.780;23.116;2022-08-25T14:34:18;19.23;;;3.20;;
55589;SDS011;41452;42.780;23.116;2022-08-25T14:36:46;19.23;;;2.95;;
55589;SDS011;41452;42.780;23.116;2022-08-25T14:39:12;17.10;;;3.20;;
55589;SDS011;41452;42.780;23.116;2022-08-25T14:41:39;18.95;;;3.00;;
55589;SDS011;41452;42.780;23.116;2022-08-25T14:44:06;18.52;;;3.40;;
55589;SDS011;41452;42.780;23.116;2022-08-25T14:46:34;20.77;;;3.55;;
55589;SDS011;41452;42.780;23.116;2022-08-25T14:49:04;17.30;;;2.97;;
55589;SDS011;41452;42.780;23.116;2022-08-25T14:51:32;15.05;;;3.05;;
55589;SDS011;41452;42.780;23.116;2022-08-25T14:53:59;20.08;;;3.42;;
55589;SDS011;41452;42.780;23.116;2022-08-25T14:56:27;23.38;;;3.72;;
55589;SDS011;41452;42.780;23.116;2022-08-25T14:58:53;15.15;;;3.22;;
55589;SDS011;41452;42.780;23.116;2022-08-25T15:01:19;23.02;;;3.67;;
55589;SDS011;41452;42.780;23.116;2022-08-25T15:03:46;17.27;;;2.97;;
55589;SDS011;41452;42.780;23.116;2022-08-25T15:06:15;18.70;;;3.30;;
55589;SDS011;41452;42.780;23.116;2022-08-25T15:08:41;16.70;;;3.33;;
55589;SDS011;41452;42.780;23.116;2022-08-25T15:11:25;24.80;;;3.47;;
55589;SDS011;41452;42.780;23.116;2022-08-25T15:13:51;16.17;;;3.03;;
55589;SDS011;41452;42.780;23.116;2022-08-25T15:16:27;17.85;;;3.28;;
55589;SDS011;41452;42.780;23.116;2022-08-25T15:18:58;28.80;;;3.65;;
55589;SDS011;41452;42.780;23.116;2022-08-25T15:21:25;24.27;;;3.60;;
55589;SDS011;41452;42.780;23.116;2022-08-25T15:23:50;9.10;;;2.38;;
55589;SDS011;41452;42.780;23.116;2022-08-25T15:26:16;19.95;;;3.45;;
55589;SDS011;41452;42.780;23.116;2022-08-25T15:28:44;27.90;;;3.08;;
55589;SDS011;41452;42.780;23.116;2022-08-25T15:31:13;19.58;;;3.00;;
55589;SDS011;41452;42.780;23.116;2022-08-25T15:33:40;16.63;;;3.03;;
55589;SDS011;41452;42.780;23.116;2022-08-25T15:36:06;18.85;;;2.85;;
55589;SDS011;41452;42.780;23.116;2022-08-25T15:38:35;16.60;;;3.63;;
55589;SDS011;41452;42.780;23.116;2022-08-25T15:41:02;20.95;;;3.42;;
55589;SDS011;41452;42.780;23.116;2022-08-25T15:43:28;24.17;;;3.40;;
55589;SDS011;41452;42.780;23.116;2022-08-25T15:45:54;25.85;;;4.05;;
55589;SDS011;41452;42.780;23.116;2022-08-25T15:48:19;27.27;;;3.60;;
55589;SDS011;41452;42.780;23.116;2022-08-25T15:50:45;25.65;;;3.30;;
55589;SDS011;41452;42.780;23.116;2022-08-25T15:53:11;12.77;;;3.00;;
55589;SDS011;41452;42.780;23.116;2022-08-25T15:55:37;13.95;;;3.05;;
55589;SDS011;41452;42.780;23.116;2022-08-25T15:58:03;22.58;;;3.85;;
55589;SDS011;41452;42.780;23.116;2022-08-25T16:00:28;30.27;;;3.47;;
55589;SDS011;41452;42.780;23.116;2022-08-25T16:02:54;23.05;;;3.78;;
55589;SDS011;41452;42.780;23.116;2022-08-25T16:05:19;9.50;;;2.63;;
55589;SDS011;41452;42.780;23.116;2022-08-25T16:07:45;12.02;;;2.60;;
55589;SDS011;41452;42.780;23.116;2022-08-25T16:10:10;13.35;;;3.05;;
55589;SDS011;41452;42.780;23.116;2022-08-25T16:12:36;21.85;;;3.47;;
55589;SDS011;41452;42.780;23.116;2022-08-25T16:15:04;23.77;;;3.30;;
55589;SDS011;41452;42.780;23.116;2022-08-25T16:17:30;20.48;;;3.33;;
55589;SDS011;41452;42.780;23.116;2022-08-25T16:19:56;23.40;;;3.33;;
55589;SDS011;41452;42.780;23.116;2022-08-25T16:22:21;14.32;;;3.00;;
55589;SDS011;41452;42.780;23.116;2022-08-25T16:24:47;22.80;;;3.35;;
55589;SDS011;41452;42.780;23.116;2022-08-25T16:27:13;20.15;;;4.30;;
55589;SDS011;41452;42.780;23.116;2022-08-25T16:29:42;20.45;;;3.70;;
55589;SDS011;41452;42.780;23.116;2022-08-25T16:32:09;15.82;;;3.38;;
55589;SDS011;41452;42.780;23.116;2022-08-25T16:34:36;14.90;;;3.20;;
55589;SDS011;41452;42.780;23.116;2022-08-25T16:37:03;26.33;;;3.60;;
55589;SDS011;41452;42.780;23.116;2022-08-25T16:39:28;15.68;;;4.15;;
55589;SDS011;41452;42.780;23.116;2022-08-25T16:41:54;21.10;;;3.50;;
55589;SDS011;41452;42.780;23.116;2022-08-25T16:44:20;22.40;;;3.58;;
55589;SDS011;41452;42.780;23.116;2022-08-25T16:46:45;18.58;;;3.58;;
55589;SDS011;41452;42.780;23.116;2022-08-25T16:49:12;17.27;;;3.45;;
55589;SDS011;41452;42.780;23.116;2022-08-25T16:51:39;15.70;;;3.22;;
55589;SDS011;41452;42.780;23.116;2022-08-25T16:54:05;15.77;;;3.30;;
55589;SDS011;41452;42.780;23.116;2022-08-25T16:56:50;21.90;;;2.97;;
55589;SDS011;41452;42.780;23.116;2022-08-25T16:59:15;17.05;;;3.33;;
55589;SDS011;41452;42.780;23.116;2022-08-25T17:01:41;18.25;;;3.60;;
55589;SDS011;41452;42.780;23.116;2022-08-25T17:04:07;14.43;;;3.40;;
55589;SDS011;41452;42.780;23.116;2022-08-25T17:06:34;26.20;;;3.90;;
55589;SDS011;41452;42.780;23.116;2022-08-25T17:09:03;26.65;;;4.07;;
55589;SDS011;41452;42.780;23.116;2022-08-25T17:11:30;15.90;;;4.38;;
55589;SDS011;41452;42.780;23.116;2022-08-25T17:13:59;16.77;;;3.20;;
55589;SDS011;41452;42.780;23.116;2022-08-25T17:16:27;14.68;;;3.45;;
55589;SDS011;41452;42.780;23.116;2022-08-25T17:18:54;14.40;;;3.78;;
55589;SDS011;41452;42.780;23.116;2022-08-25T17:21:22;19.63;;;3.95;;
55589;SDS011;41452;42.780;23.116;2022-08-25T17:23:50;11.98;;;3.55;;
55589;SDS011;41452;42.780;23.116;2022-08-25T17:26:17;10.60;;;2.72;;
55589;SDS011;41452;42.780;23.116;2022-08-25T17:28:43;20.33;;;3.35;;
55589;SDS011;41452;42.780;23.116;2022-08-25T17:31:10;12.43;;;3.22;;
55589;SDS011;41452;42.780;23.116;2022-08-25T17:33:36;13.23;;;4.18;;
55589;SDS011;41452;42.780;23.116;2022-08-25T17:36:02;13.43;;;4.43;;